createdAt,value
2019-02-14T00:01:27.447Z,-2.80
2019-02-14T00:03:55.647Z,-3.00
2019-02-14T00:06:23.867Z,-3.10
2019-02-14T00:08:52.108Z,-3.10
2019-02-14T00:11:20.269Z,-3.10
2019-02-14T00:13:48.481Z,-3.20
2019-02-14T00:16:16.554Z,-3.20
2019-02-14T00:18:44.620Z,-3.30
2019-02-14T00:21:12.759Z,-3.30
2019-02-14T00:23:41.894Z,-3.30
2019-02-14T00:26:10.015Z,-3.30
2019-02-14T00:28:38.424Z,-3.20
2019-02-14T00:31:06.768Z,-3.20
2019-02-14T00:33:35.395Z,-3.10
2019-02-14T00:36:03.671Z,-3.00
2019-02-14T00:38:31.929Z,-3.00
2019-02-14T00:41:00.158Z,-3.00
2019-02-14T00:43:28.216Z,-3.00
2019-02-14T00:45:56.469Z,-3.00
2019-02-14T00:48:24.755Z,-3.00
2019-02-14T00:50:52.983Z,-3.00
2019-02-14T00:53:21.307Z,-3.00
2019-02-14T00:55:49.639Z,-3.00
2019-02-14T00:58:17.958Z,-3.10
2019-02-14T01:00:46.192Z,-3.20
2019-02-14T01:03:14.499Z,-3.20
2019-02-14T01:05:42.760Z,-3.10
2019-02-14T01:08:10.851Z,-3.20
2019-02-14T01:10:39.076Z,-3.30
2019-02-14T01:13:07.463Z,-3.40
2019-02-14T01:15:36.605Z,-3.50
2019-02-14T01:18:04.757Z,-3.50
2019-02-14T01:20:34.286Z,-3.30
2019-02-14T01:23:02.524Z,-3.20
2019-02-14T01:25:30.725Z,-3.10
2019-02-14T01:27:58.913Z,-3.00
2019-02-14T01:30:27.134Z,-3.10
2019-02-14T01:32:55.262Z,-3.10
2019-02-14T01:35:23.504Z,-3.00
2019-02-14T01:37:51.612Z,-2.90
2019-02-14T01:40:19.831Z,-2.90
2019-02-14T01:42:48.006Z,-2.80
2019-02-14T01:45:16.214Z,-2.80
2019-02-14T01:47:44.340Z,-2.70
2019-02-14T01:50:12.601Z,-2.70
2019-02-14T01:52:40.908Z,-2.80
2019-02-14T01:55:09.138Z,-2.90
2019-02-14T01:57:37.360Z,-3.00
2019-02-14T02:00:07.584Z,-3.00
2019-02-14T02:02:35.652Z,-2.90
2019-02-14T02:05:04.053Z,-3.00
2019-02-14T02:07:32.296Z,-3.00
2019-02-14T02:10:00.568Z,-3.00
2019-02-14T02:12:28.980Z,-2.90
2019-02-14T02:14:56.910Z,-2.80
2019-02-14T02:17:25.447Z,-2.80
2019-02-14T02:19:53.799Z,-2.80
2019-02-14T02:22:21.989Z,-2.90
2019-02-14T02:24:50.236Z,-3.00
2019-02-14T02:27:18.480Z,-3.00
2019-02-14T02:29:46.771Z,-3.00
2019-02-14T02:32:15.113Z,-3.10
2019-02-14T02:34:44.546Z,-3.20
2019-02-14T02:37:12.766Z,-3.10
2019-02-14T02:39:41.977Z,-3.20
2019-02-14T02:42:10.208Z,-3.30
2019-02-14T02:44:38.428Z,-3.30
2019-02-14T02:47:06.151Z,-3.40
2019-02-14T02:49:34.565Z,-3.50
2019-02-14T02:52:02.799Z,-3.60
2019-02-14T02:54:30.932Z,-3.70
2019-02-14T02:56:59.143Z,-3.80
2019-02-14T02:59:27.379Z,-3.70
2019-02-14T03:01:55.322Z,-3.60
2019-02-14T03:04:23.460Z,-3.70
2019-02-14T03:06:51.776Z,-3.70
2019-02-14T03:09:20.956Z,-3.80
2019-02-14T03:11:49.257Z,-3.70
2019-02-14T03:14:18.675Z,-3.70
2019-02-14T03:16:46.920Z,-3.60
2019-02-14T03:19:15.209Z,-3.60
2019-02-14T03:21:43.229Z,-3.70
2019-02-14T03:24:12.355Z,-3.80
2019-02-14T03:26:40.600Z,-3.90
2019-02-14T03:29:08.610Z,-4.00
2019-02-14T03:31:36.843Z,-3.90
2019-02-14T03:34:06.330Z,-3.80
2019-02-14T03:36:34.365Z,-3.70
2019-02-14T03:39:03.800Z,-3.60
2019-02-14T03:41:32.294Z,-3.50
2019-02-14T03:44:00.614Z,-3.50
2019-02-14T03:46:29.779Z,-3.50
2019-02-14T03:48:59.583Z,-3.50
2019-02-14T03:51:28.621Z,-3.50
2019-02-14T03:53:57.672Z,-3.60
2019-02-14T03:56:25.860Z,-3.50
2019-02-14T03:58:54.153Z,-3.50
2019-02-14T04:01:22.307Z,-3.50
2019-02-14T04:03:50.572Z,-3.40
2019-02-14T04:06:26.986Z,-3.30
2019-02-14T04:08:48.660Z,-3.20
2019-02-14T04:11:16.968Z,-3.20
2019-02-14T04:13:45.215Z,-3.10
2019-02-14T04:16:13.311Z,-3.10
2019-02-14T04:18:41.486Z,-3.00
2019-02-14T04:23:06.723Z,-3.00
2019-02-14T04:25:34.887Z,-3.00
2019-02-14T04:28:02.959Z,-2.90
2019-02-14T04:30:32.786Z,-2.90
2019-02-14T04:33:02.160Z,-3.00
2019-02-14T04:35:30.126Z,-3.00
2019-02-14T04:37:58.384Z,-3.00
2019-02-14T04:40:33.464Z,-3.00
2019-02-14T04:42:56.760Z,-3.00
2019-02-14T04:45:24.774Z,-3.00
2019-02-14T04:47:53.013Z,-3.00
2019-02-14T04:50:21.444Z,-3.00
2019-02-14T04:52:49.719Z,-3.00
2019-02-14T04:55:17.869Z,-3.00
2019-02-14T04:57:47.592Z,-2.90
2019-02-14T05:00:15.880Z,-2.90
2019-02-14T05:02:45.381Z,-2.80
2019-02-14T05:05:13.523Z,-2.80
2019-02-14T05:07:41.718Z,-2.80
2019-02-14T05:10:09.758Z,-2.80
2019-02-14T05:12:37.660Z,-2.80
2019-02-14T05:15:06.197Z,-2.80
2019-02-14T05:17:34.544Z,-2.90
2019-02-14T05:20:02.747Z,-2.90
2019-02-14T05:22:31.054Z,-2.90
2019-02-14T05:24:59.307Z,-2.90
2019-02-14T05:27:27.515Z,-3.00
2019-02-14T05:29:55.577Z,-3.10
2019-02-14T05:32:23.861Z,-3.00
2019-02-14T05:34:51.994Z,-3.00
2019-02-14T05:37:20.068Z,-3.00
2019-02-14T05:39:48.256Z,-3.00
2019-02-14T05:42:16.337Z,-3.00
2019-02-14T05:44:44.534Z,-2.90
2019-02-14T05:47:12.652Z,-2.90
2019-02-14T05:49:40.866Z,-2.90
2019-02-14T05:52:09.112Z,-3.00
2019-02-14T05:54:37.005Z,-3.00
2019-02-14T05:57:05.191Z,-2.90
2019-02-14T05:59:33.230Z,-2.90
2019-02-14T06:02:01.424Z,-2.90
2019-02-14T06:04:29.770Z,-2.90
2019-02-14T06:07:01.127Z,-2.80
2019-02-14T06:09:29.183Z,-2.80
2019-02-14T06:11:57.513Z,-2.70
2019-02-14T06:14:25.853Z,-2.70
2019-02-14T06:16:54.062Z,-2.70
2019-02-14T06:19:22.201Z,-2.60
2019-02-14T06:21:50.274Z,-2.70
2019-02-14T06:24:18.455Z,-2.80
2019-02-14T06:26:46.706Z,-2.90
2019-02-14T06:29:15.030Z,-3.00
2019-02-14T06:31:43.189Z,-3.10
2019-02-14T06:34:11.394Z,-3.10
2019-02-14T06:36:39.604Z,-3.00
2019-02-14T06:39:07.880Z,-3.00
2019-02-14T06:41:35.923Z,-3.00
2019-02-14T06:44:04.035Z,-3.00
2019-02-14T06:46:32.334Z,-2.90
2019-02-14T06:49:00.611Z,-2.80
2019-02-14T06:51:28.990Z,-2.70
2019-02-14T06:53:58.428Z,-2.50
2019-02-14T06:56:26.785Z,-2.50
2019-02-14T06:58:54.819Z,-2.40
2019-02-14T07:01:22.972Z,-2.40
2019-02-14T07:03:51.308Z,-2.30
2019-02-14T07:06:19.552Z,-2.10
2019-02-14T07:08:47.683Z,-1.90
2019-02-14T07:11:16.004Z,-1.80
2019-02-14T07:13:44.205Z,-1.70
2019-02-14T07:16:12.167Z,-1.70
2019-02-14T07:18:40.636Z,-1.70
2019-02-14T07:21:08.982Z,-1.60
2019-02-14T07:23:37.255Z,-1.60
2019-02-14T07:26:07.196Z,-1.50
2019-02-14T07:28:35.538Z,-1.40
2019-02-14T07:31:03.744Z,-1.30
2019-02-14T07:33:31.926Z,-1.20
2019-02-14T07:36:02.418Z,-1.10
2019-02-14T07:38:32.299Z,-1.10
2019-02-14T07:41:00.352Z,-1.10
2019-02-14T07:43:28.712Z,-1.00
2019-02-14T07:45:56.933Z,-0.80
2019-02-14T07:48:25.611Z,-0.60
2019-02-14T07:50:53.865Z,-0.40
2019-02-14T07:53:22.092Z,-0.20
2019-02-14T07:55:50.308Z,-0.20
2019-02-14T07:58:18.438Z,0.00
2019-02-14T08:00:46.823Z,0.20
2019-02-14T08:03:14.831Z,0.30
2019-02-14T08:05:43.067Z,0.50
2019-02-14T08:08:11.996Z,0.50
2019-02-14T08:10:54.286Z,0.50
2019-02-14T08:13:40.228Z,0.40
2019-02-14T08:16:25.457Z,0.30
2019-02-14T08:19:10.937Z,0.30
2019-02-14T08:21:49.595Z,0.40
2019-02-14T08:24:29.138Z,0.40
2019-02-14T08:27:10.254Z,0.60
2019-02-14T08:29:51.739Z,1.00
2019-02-14T08:32:31.764Z,1.10
2019-02-14T08:35:00.328Z,1.10
2019-02-14T08:37:29.049Z,1.10
2019-02-14T08:39:57.154Z,1.10
2019-02-14T08:42:25.830Z,1.10
2019-02-14T08:44:54.036Z,1.00
2019-02-14T08:47:22.185Z,1.10
2019-02-14T08:49:51.021Z,1.50
2019-02-14T08:52:19.133Z,1.70
2019-02-14T08:54:48.320Z,1.80
2019-02-14T08:57:16.496Z,1.90
2019-02-14T08:59:44.715Z,2.10
2019-02-14T09:02:14.973Z,2.40
2019-02-14T09:04:42.803Z,2.60
2019-02-14T09:07:11.380Z,3.00
2019-02-14T09:09:40.946Z,3.10
2019-02-14T09:12:09.040Z,3.10
2019-02-14T09:14:37.112Z,3.40
2019-02-14T09:17:07.125Z,3.40
2019-02-14T09:19:35.369Z,3.70
2019-02-14T09:22:03.599Z,4.20
2019-02-14T09:24:31.751Z,4.50
2019-02-14T09:27:01.015Z,4.70
2019-02-14T09:29:29.109Z,4.90
2019-02-14T09:31:57.179Z,5.20
2019-02-14T09:34:25.360Z,5.00
2019-02-14T09:36:53.447Z,5.10
2019-02-14T09:39:21.665Z,5.20
2019-02-14T09:41:49.590Z,5.00
2019-02-14T09:44:17.793Z,4.90
2019-02-14T09:46:45.848Z,4.90
2019-02-14T09:49:15.296Z,5.20
2019-02-14T09:51:44.483Z,5.20
2019-02-14T09:54:11.774Z,5.30
2019-02-14T09:56:39.037Z,5.60
2019-02-14T09:59:17.512Z,5.80
2019-02-14T10:01:54.018Z,6.00
2019-02-14T10:04:32.821Z,6.00
2019-02-14T10:07:11.276Z,5.80
2019-02-14T10:09:50.556Z,5.90
2019-02-14T10:12:28.869Z,5.70
2019-02-14T10:15:07.928Z,5.70
2019-02-14T10:17:50.918Z,5.80
2019-02-14T10:20:36.933Z,5.90
2019-02-14T10:23:19.919Z,6.00
2019-02-14T10:25:59.035Z,6.10
2019-02-14T10:28:37.586Z,6.00
2019-02-14T10:31:28.510Z,6.10
2019-02-14T10:34:14.497Z,6.20
2019-02-14T10:37:02.167Z,6.10
2019-02-14T10:39:48.843Z,5.90
2019-02-14T10:42:34.850Z,6.00
2019-02-14T10:45:22.172Z,6.00
2019-02-14T10:48:15.272Z,6.10
2019-02-14T10:51:08.274Z,5.90
2019-02-14T10:53:53.760Z,5.60
2019-02-14T10:56:37.643Z,5.30
2019-02-14T10:59:33.588Z,5.10
2019-02-14T11:02:22.561Z,5.00
2019-02-14T11:05:20.815Z,5.10
2019-02-14T11:08:21.107Z,5.10
2019-02-14T11:11:23.847Z,5.30
2019-02-14T11:14:09.709Z,5.40
2019-02-14T11:17:02.332Z,5.50
2019-02-14T11:19:57.393Z,5.50
2019-02-14T11:22:49.866Z,5.60
2019-02-14T11:25:36.937Z,5.60
2019-02-14T11:28:22.842Z,5.60
2019-02-14T11:31:09.986Z,5.70
2019-02-14T11:33:59.522Z,5.80
2019-02-14T11:36:47.949Z,6.00
2019-02-14T11:39:31.747Z,6.00
2019-02-14T11:42:30.707Z,6.20
2019-02-14T11:45:21.915Z,6.30
2019-02-14T11:48:18.791Z,6.50
2019-02-14T11:51:06.988Z,6.50
2019-02-14T11:53:55.525Z,6.80
2019-02-14T11:56:42.766Z,6.80
2019-02-14T11:59:36.433Z,6.80
2019-02-14T12:02:24.971Z,6.70
2019-02-14T12:05:11.716Z,6.80
2019-02-14T12:07:59.350Z,6.90
2019-02-14T12:10:48.176Z,6.80
2019-02-14T12:13:45.873Z,7.00
2019-02-14T12:16:31.427Z,7.10
2019-02-14T12:19:21.552Z,7.00
2019-02-14T12:22:09.292Z,7.10
2019-02-14T12:24:56.453Z,7.30
2019-02-14T12:28:01.495Z,7.30
2019-02-14T12:30:47.671Z,7.40
2019-02-14T12:33:36.006Z,7.40
2019-02-14T12:36:31.755Z,7.40
2019-02-14T12:39:19.990Z,7.50
2019-02-14T12:42:07.451Z,7.60
2019-02-14T12:45:06.567Z,7.60
2019-02-14T12:48:17.079Z,7.70
2019-02-14T12:51:11.883Z,7.70
2019-02-14T12:53:54.989Z,7.60
2019-02-14T12:56:37.094Z,7.70
2019-02-14T12:59:05.746Z,7.70
2019-02-14T13:01:35.730Z,7.80
2019-02-14T13:04:03.877Z,7.80
2019-02-14T13:06:32.429Z,7.70
2019-02-14T13:09:02.653Z,7.60
2019-02-14T13:11:34.894Z,7.70
2019-02-14T13:14:06.312Z,7.70
2019-02-14T13:16:34.605Z,7.70
2019-02-14T13:19:05.198Z,7.90
2019-02-14T13:21:35.027Z,8.10
2019-02-14T13:24:06.408Z,8.20
2019-02-14T13:26:34.648Z,8.20
2019-02-14T13:29:02.943Z,8.20
2019-02-14T13:31:32.424Z,8.30
2019-02-14T13:34:12.929Z,8.40
2019-02-14T13:36:41.071Z,8.40
2019-02-14T13:39:09.580Z,8.40
2019-02-14T13:41:43.995Z,8.30
2019-02-14T13:44:14.655Z,8.20
2019-02-14T13:46:43.058Z,8.00
2019-02-14T13:49:11.257Z,8.00
2019-02-14T13:51:39.292Z,8.20
2019-02-14T13:54:07.728Z,8.20
2019-02-14T13:56:35.698Z,8.20
2019-02-14T13:59:03.737Z,8.10
2019-02-14T14:01:32.036Z,8.10
2019-02-14T14:04:00.114Z,8.10
2019-02-14T14:06:28.276Z,8.10
2019-02-14T14:08:56.325Z,8.20
2019-02-14T14:11:24.531Z,8.20
2019-02-14T14:13:52.889Z,8.20
2019-02-14T14:16:25.194Z,8.10
2019-02-14T14:18:53.347Z,8.40
2019-02-14T14:21:21.505Z,8.40
2019-02-14T14:23:49.801Z,8.40
2019-02-14T14:26:17.979Z,8.50
2019-02-14T14:28:46.227Z,8.50
2019-02-14T14:31:16.444Z,8.40
2019-02-14T14:33:44.712Z,8.40
2019-02-14T14:36:13.021Z,8.40
2019-02-14T14:38:41.162Z,8.30
2019-02-14T14:41:09.392Z,8.30
2019-02-14T14:43:59.828Z,8.20
2019-02-14T14:46:34.700Z,8.10
2019-02-14T14:49:02.959Z,8.00
2019-02-14T14:51:31.150Z,7.90
2019-02-14T14:53:59.323Z,7.90
2019-02-14T14:56:27.551Z,7.80
2019-02-14T14:58:55.668Z,7.80
2019-02-14T15:01:23.608Z,7.80
2019-02-14T15:03:52.274Z,7.90
2019-02-14T15:06:22.176Z,7.90
2019-02-14T15:08:50.309Z,7.80
2019-02-14T15:11:19.257Z,7.70
2019-02-14T15:13:47.567Z,7.60
2019-02-14T15:16:15.631Z,7.60
2019-02-14T15:18:43.825Z,7.70
2019-02-14T15:21:11.972Z,7.60
2019-02-14T15:23:40.056Z,7.50
2019-02-14T15:26:08.292Z,7.40
2019-02-14T15:28:38.225Z,7.30
2019-02-14T15:31:06.395Z,7.20
2019-02-14T15:33:34.497Z,7.00
2019-02-14T15:36:02.872Z,6.90
2019-02-14T15:38:32.256Z,6.80
2019-02-14T15:41:00.932Z,6.80
2019-02-14T15:43:29.121Z,6.70
2019-02-14T15:45:58.268Z,6.80
2019-02-14T15:48:26.217Z,6.80
2019-02-14T15:50:56.573Z,6.70
2019-02-14T15:53:24.474Z,6.50
2019-02-14T15:55:52.789Z,6.40
2019-02-14T15:58:21.023Z,6.40
2019-02-14T16:00:49.978Z,6.40
2019-02-14T16:03:19.595Z,6.40
2019-02-14T16:05:48.138Z,6.40
2019-02-14T16:08:16.268Z,6.20
2019-02-14T16:10:44.574Z,6.00
2019-02-14T16:13:12.933Z,5.80
2019-02-14T16:15:41.025Z,5.80
2019-02-14T16:20:47.047Z,5.80
2019-02-14T16:23:16.697Z,5.60
2019-02-14T16:25:45.182Z,5.60
2019-02-14T16:28:13.752Z,5.50
2019-02-14T16:30:41.950Z,5.30
2019-02-14T16:33:13.002Z,5.10
2019-02-14T16:35:41.052Z,5.00
2019-02-14T16:38:11.356Z,4.90
2019-02-14T16:40:39.270Z,4.70
2019-02-14T16:43:08.419Z,4.40
2019-02-14T16:45:37.402Z,4.10
2019-02-14T16:48:16.340Z,3.90
2019-02-14T16:50:44.967Z,3.70
2019-02-14T16:53:13.525Z,3.60
2019-02-14T16:55:42.035Z,3.40
2019-02-14T16:58:10.472Z,3.20
2019-02-14T17:00:38.689Z,3.00
2019-02-14T17:03:11.514Z,2.90
2019-02-14T17:05:39.889Z,2.80
2019-02-14T17:08:07.994Z,2.90
2019-02-14T17:10:37.358Z,3.10
2019-02-14T17:13:05.856Z,3.00
2019-02-14T17:15:35.463Z,3.00
2019-02-14T17:18:03.799Z,3.10
2019-02-14T17:20:32.153Z,3.10
2019-02-14T17:23:00.753Z,2.90
2019-02-14T17:25:28.864Z,2.80
2019-02-14T17:27:58.153Z,2.60
2019-02-14T17:30:26.499Z,2.30
2019-02-14T17:32:55.108Z,2.10
2019-02-14T17:35:23.391Z,2.20
2019-02-14T17:37:52.208Z,2.00
2019-02-14T17:40:20.071Z,1.90
2019-02-14T17:42:48.499Z,1.70
2019-02-14T17:45:16.725Z,1.80
2019-02-14T17:47:44.979Z,1.90
2019-02-14T17:50:13.108Z,1.80
2019-02-14T17:52:41.336Z,1.60
2019-02-14T17:55:09.575Z,1.40
2019-02-14T17:57:37.898Z,1.20
2019-02-14T18:00:06.832Z,1.10
2019-02-14T18:02:34.949Z,1.00
2019-02-14T18:05:03.219Z,0.80
2019-02-14T18:07:31.334Z,0.80
2019-02-14T18:09:59.564Z,0.70
2019-02-14T18:12:27.890Z,0.60
2019-02-14T18:14:56.937Z,0.50
2019-02-14T18:17:26.156Z,0.50
2019-02-14T18:19:54.309Z,0.40
2019-02-14T18:22:22.410Z,0.40
2019-02-14T18:24:50.653Z,0.30
2019-02-14T18:27:18.870Z,0.30
2019-02-14T18:29:46.992Z,0.20
2019-02-14T18:32:15.352Z,0.20
2019-02-14T18:34:43.457Z,0.10
2019-02-14T18:37:11.772Z,0.00
2019-02-14T18:39:39.922Z,0.00
2019-02-14T18:42:08.196Z,0.00
2019-02-14T18:44:36.235Z,0.00
2019-02-14T18:47:04.417Z,0.00
2019-02-14T18:49:32.631Z,0.00
2019-02-14T18:52:00.811Z,0.00
2019-02-14T18:54:30.675Z,-0.10
2019-02-14T18:56:59.827Z,-0.10
2019-02-14T18:59:28.117Z,-0.10
2019-02-14T19:01:56.317Z,-0.20
2019-02-14T19:04:24.660Z,-0.20
2019-02-14T19:06:52.979Z,-0.40
2019-02-14T19:09:22.021Z,-0.20
2019-02-14T19:11:50.182Z,-0.30
2019-02-14T19:14:18.426Z,-0.40
2019-02-14T19:16:46.712Z,-0.30
2019-02-14T19:19:46.860Z,-0.30
2019-02-14T19:22:14.809Z,-0.30
2019-02-14T19:24:44.369Z,-0.40
2019-02-14T19:27:12.498Z,-0.50
2019-02-14T19:29:40.797Z,-0.60
2019-02-14T19:32:10.798Z,-0.70
2019-02-14T19:34:41.230Z,-0.70
2019-02-14T19:37:09.962Z,-0.80
2019-02-14T19:39:38.060Z,-0.90
2019-02-14T19:42:06.245Z,-1.00
2019-02-14T19:44:34.108Z,-1.00
2019-02-14T19:47:04.278Z,-1.00
2019-02-14T19:49:32.862Z,-1.00
2019-02-14T19:52:01.317Z,-1.00
2019-02-14T19:54:29.926Z,-1.00
2019-02-14T19:56:58.558Z,-1.10
2019-02-14T19:59:27.035Z,-1.00
2019-02-14T20:01:55.429Z,-1.10
2019-02-14T20:04:24.350Z,-1.10
2019-02-14T20:06:53.094Z,-1.10
2019-02-14T20:09:21.344Z,-1.20
2019-02-14T20:11:49.772Z,-1.20
2019-02-14T20:14:18.012Z,-1.30
2019-02-14T20:16:45.911Z,-1.40
2019-02-14T20:19:17.567Z,-1.50
2019-02-14T20:21:45.627Z,-1.60
2019-02-14T20:24:13.785Z,-1.60
2019-02-14T20:26:51.029Z,-1.70
2019-02-14T20:29:35.523Z,-1.70
2019-02-14T20:32:13.018Z,-1.70
2019-02-14T20:34:50.775Z,-1.70
2019-02-14T20:37:31.496Z,-1.70
2019-02-14T20:40:14.973Z,-1.70
2019-02-14T20:42:58.624Z,-1.80
2019-02-14T20:45:40.774Z,-1.90
2019-02-14T20:48:15.503Z,-1.80
2019-02-14T20:50:42.755Z,-1.70
2019-02-14T20:53:10.109Z,-1.50
2019-02-14T20:55:37.422Z,-1.60
2019-02-14T20:58:04.811Z,-1.60
2019-02-14T21:00:32.773Z,-1.60
2019-02-14T21:03:00.835Z,-1.70
2019-02-14T21:05:30.213Z,-1.90
2019-02-14T21:07:57.595Z,-2.00
2019-02-14T21:10:26.745Z,-2.00
2019-02-14T21:12:55.006Z,-1.90
2019-02-14T21:15:22.452Z,-1.90
2019-02-14T21:17:49.871Z,-1.80
2019-02-14T21:20:17.316Z,-1.80
2019-02-14T21:22:44.798Z,-1.70
2019-02-14T21:25:12.431Z,-1.60
2019-02-14T21:27:40.041Z,-1.50
2019-02-14T21:30:07.585Z,-1.50
2019-02-14T21:32:35.085Z,-1.60
2019-02-14T21:35:02.590Z,-1.70
2019-02-14T21:37:30.281Z,-1.70
2019-02-14T21:39:57.799Z,-1.80
2019-02-14T21:42:29.291Z,-1.80
2019-02-14T21:44:54.201Z,-1.90
2019-02-14T21:47:22.344Z,-2.00
2019-02-14T21:49:49.721Z,-2.00
2019-02-14T21:52:17.114Z,-2.00
2019-02-14T21:54:44.800Z,-2.00
2019-02-14T21:57:12.075Z,-1.90
2019-02-14T21:59:39.414Z,-2.00
2019-02-14T22:02:07.085Z,-2.00
2019-02-14T22:04:34.342Z,-1.90
2019-02-14T22:07:01.778Z,-1.90
2019-02-14T22:09:29.263Z,-2.00
2019-02-14T22:11:56.659Z,-2.10
2019-02-14T22:14:24.238Z,-2.10
2019-02-14T22:16:51.576Z,-2.10
2019-02-14T22:19:20.157Z,-2.10
2019-02-14T22:21:47.562Z,-2.10
2019-02-14T22:24:15.880Z,-2.10
2019-02-14T22:26:43.278Z,-2.00
2019-02-14T22:29:10.596Z,-2.20
2019-02-14T22:31:37.985Z,-2.30
2019-02-14T22:34:05.203Z,-2.40
2019-02-14T22:36:32.698Z,-2.50
2019-02-14T22:39:00.048Z,-2.60
2019-02-14T22:41:27.464Z,-2.60
2019-02-14T22:44:00.944Z,-2.60
2019-02-14T22:46:45.462Z,-2.70
2019-02-14T22:49:28.609Z,-2.70
2019-02-14T22:52:14.998Z,-2.70
2019-02-14T22:55:06.037Z,-2.60
2019-02-14T22:57:58.509Z,-2.70
2019-02-14T23:00:47.823Z,-2.70
2019-02-14T23:03:39.737Z,-2.70
2019-02-14T23:06:20.636Z,-2.80
2019-02-14T23:09:01.372Z,-2.80
2019-02-14T23:11:46.613Z,-2.80
2019-02-14T23:14:29.965Z,-2.80
2019-02-14T23:17:18.803Z,-2.80
2019-02-14T23:20:07.473Z,-2.90
2019-02-14T23:22:50.869Z,-2.90
2019-02-14T23:25:49.681Z,-2.90
2019-02-14T23:28:39.086Z,-2.90
2019-02-14T23:31:16.542Z,-2.90
2019-02-14T23:33:59.236Z,-2.90
2019-02-14T23:36:44.652Z,-2.80
2019-02-14T23:39:30.268Z,-2.80
2019-02-14T23:42:11.124Z,-2.80
2019-02-14T23:44:53.387Z,-2.80
2019-02-14T23:47:34.166Z,-2.80
2019-02-14T23:50:09.187Z,-2.80
2019-02-14T23:52:36.748Z,-2.80
2019-02-14T23:55:04.013Z,-2.70
2019-02-14T23:57:31.495Z,-2.70
2019-02-14T23:59:58.821Z,-2.60
